Time;durP1;ratioP1;P1;durP2;ratioP2;P2;SDS_P1;SDS_P2;PMS_P1;PMS_P2;Temp;Humidity;BMP_temperature;BMP_pressure;BME280_temperature;BME280_humidity;BME280_pressure;Samples;Min_cycle;Max_cycle;Signal;HPM_P1;HPM_P2
2022/01/21 00:00:56;;;;;;;;;;;;;;;;;;2109124;28;19924;-66
2022/01/21 00:01:58;;;;;;;;;;;;;;;;;;2109114;28;20732;-66
2022/01/21 00:03:00;;;;;;;;;;;;;;;;;;2108826;28;19925;-66
2022/01/21 00:04:02;;;;;;;;;;;;;;;;;;2109031;28;19928;-67
2022/01/21 00:05:03;;;;;;;;;;;;;;;;;;2109616;28;19925;-68
2022/01/21 00:06:06;;;;;;;;;;;;;;;;;;2109520;28;19931;-66
2022/01/21 00:07:08;;;;;;;;;;;;;;;;;;2109649;28;19931;-65
2022/01/21 00:08:10;;;;;;;;;;;;;;;;;;2109276;28;19924;-64
2022/01/21 00:09:12;;;;;;;;;;;;;;;;;;2108974;28;19924;-68
2022/01/21 00:10:14;;;;;;;;;;;;;;;;;;2108948;28;19928;-66
2022/01/21 00:11:16;;;;;;;;;;;;;;;;;;2109577;28;20743;-68
2022/01/21 00:12:18;;;;;;;;;;;;;;;;;;2108905;28;19925;-68
2022/01/21 00:13:33;;;;;;;;;;;;;;;;;;2109016;28;19948;-68
2022/01/21 00:14:35;;;;;;;;;;;;;;;;;;2108817;28;19931;-68
2022/01/21 00:15:37;;;;;;;;;;;;;;;;;;2108910;28;20023;-67
2022/01/21 00:16:40;;;;;;;;;;;;;;;;;;2108864;28;20015;-68
2022/01/21 00:17:43;;;;;;;;;;;;;;;;;;2109637;28;20055;-68
2022/01/21 00:18:50;;;;;;;;;;;;;;;;;;2109392;28;20063;-67
2022/01/21 00:30:05;;;;;;;;;;;;;;;;;;2108901;28;19924;-67
2022/01/21 00:30:40;;;;;;;;;;;;;;;;;;2109374;28;20049;-67
2022/01/21 00:31:42;;;;;;;;;;;;;;;;;;2109485;28;19933;-68
2022/01/21 00:32:44;;;;;;;;;;;;;;;;;;2109018;28;20134;-69
2022/01/21 00:33:46;;;;;;;;;;;;;;;;;;2108933;28;19982;-68
2022/01/21 00:34:47;;;;;;;;;;;;;;;;;;2109098;28;20643;-68
2022/01/21 00:35:49;;;;;;;;;;;;;;;;;;2109767;28;19929;-68
2022/01/21 00:36:51;;;;;;;;;;;;;;;;;;2109593;28;20786;-69
2022/01/21 00:37:53;;;;;;;;;;;;;;;;;;2109748;28;19928;-67
2022/01/21 00:38:56;;;;;;;;;;;;;;;;;;2109172;28;19979;-68
2022/01/21 00:40:02;;;;;;;;;;;;;;;;;;2108908;28;20735;-66
2022/01/21 00:41:06;;;;;;;;;;;;;;;;;;2109039;28;19932;-67
2022/01/21 00:43:31;;;;;;;;;;;;;;;;;;2109375;28;20014;-67
2022/01/21 00:44:32;;;;;;;;;;;;;;;;;;2109697;28;20743;-69
2022/01/21 00:45:36;;;;;;;;;;;;;;;;;;2109658;28;20066;-68
2022/01/21 00:46:37;;;;;;;;;;;;;;;;;;2109084;28;20759;-68
2022/01/21 00:47:39;;;;;;;;;;;;;;;;;;2109093;28;20743;-68
2022/01/21 00:48:42;;;;;;;;;;;;;;;;;;2109386;28;19928;-67
2022/01/21 00:49:44;;;;;;;;;;;;;;;;;;2109816;28;19928;-67
2022/01/21 00:50:47;;;;;;;;;;;;;;;;;;2108988;28;19929;-68
2022/01/21 00:51:49;;;;;;;;;;;;;;;;;;2108838;28;20675;-67
2022/01/21 00:52:51;;;;;;;;;;;;;;;;;;2109173;28;19925;-66
2022/01/21 00:53:52;;;;;;;;;;;;;;;;;;2109132;28;19925;-66
2022/01/21 00:54:54;;;;;;;;;;;;;;;;;;2109059;28;19925;-69
2022/01/21 00:55:56;;;;;;;;;;;;;;;;;;2109799;28;20073;-66
2022/01/21 00:56:57;;;;;;;;;;;;;;;;;;2109470;28;20839;-66
2022/01/21 00:57:59;;;;;;;;;;;;;;;;;;2109689;28;19928;-68
2022/01/21 00:59:01;;;;;;;;;;;;;;;;;;2109522;28;19928;-65
2022/01/21 01:00:02;;;;;;;;;;;;;;;;;;2109541;28;20050;-67
2022/01/21 01:01:04;;;;;;;;;;;;;;;;;;2109686;28;19935;-69
2022/01/21 01:02:06;;;;;;;;;;;;;;;;;;2109200;28;19928;-68
2022/01/21 01:03:08;;;;;;;;;;;;;;;;;;2109211;28;20071;-69
2022/01/21 01:04:09;;;;;;;;;;;;;;;;;;2109612;28;19928;-69
2022/01/21 01:05:11;;;;;;;;;;;;;;;;;;2109053;28;19998;-68
2022/01/21 01:06:13;;;;;;;;;;;;;;;;;;2108793;28;19928;-68
2022/01/21 01:07:14;;;;;;;;;;;;;;;;;;2109722;28;19924;-68
2022/01/21 01:08:16;;;;;;;;;;;;;;;;;;2109596;28;20021;-69
2022/01/21 01:09:18;;;;;;;;;;;;;;;;;;2109447;28;19991;-69
2022/01/21 01:10:37;;;;;;;;;;;;;;;;;;2109510;28;20743;-68
2022/01/21 01:20:04;;;;;;;;;;;;;;;;;;2109525;28;19962;-69
2022/01/21 01:21:05;;;;;;;;;;;;;;;;;;2109517;28;19928;-69
2022/01/21 01:22:10;;;;;;;;;;;;;;;;;;2108847;28;20612;-69
2022/01/21 01:28:27;;;;;;;;;;;;;;;;;;2109371;28;19971;-69
2022/01/21 01:29:29;;;;;;;;;;;;;;;;;;2109594;28;20005;-69
2022/01/21 01:30:31;;;;;;;;;;;;;;;;;;2109473;28;20050;-68
2022/01/21 01:31:33;;;;;;;;;;;;;;;;;;2108863;28;19931;-68
2022/01/21 01:32:35;;;;;;;;;;;;;;;;;;2109023;28;19936;-69
2022/01/21 01:33:39;;;;;;;;;;;;;;;;;;2108883;28;20756;-69
2022/01/21 01:34:42;;;;;;;;;;;;;;;;;;2108576;28;20699;-69
2022/01/21 01:35:44;;;;;;;;;;;;;;;;;;2108829;28;19924;-68
2022/01/21 01:36:47;;;;;;;;;;;;;;;;;;2109003;28;19928;-68
2022/01/21 01:38:03;;;;;;;;;;;;;;;;;;2108912;28;20006;-67
2022/01/21 01:40:23;;;;;;;;;;;;;;;;;;2100074;28;19936;-68
2022/01/21 01:41:32;;;;;;;;;;;;;;;;;;2100363;28;19999;-68
2022/01/21 01:42:56;;;;;;;;;;;;;;;;;;2102120;28;19932;-68
2022/01/21 01:49:28;;;;;;;;;;;;;;;;;;2109426;28;19962;-67
2022/01/21 01:50:32;;;;;;;;;;;;;;;;;;2109442;28;20005;-68
2022/01/21 01:51:35;;;;;;;;;;;;;;;;;;2109148;28;19925;-68
2022/01/21 01:52:37;;;;;;;;;;;;;;;;;;2109407;28;20848;-68
2022/01/21 01:53:38;;;;;;;;;;;;;;;;;;2109267;28;19928;-67
2022/01/21 01:54:40;;;;;;;;;;;;;;;;;;2109193;28;19925;-67
2022/01/21 01:55:42;;;;;;;;;;;;;;;;;;2109306;28;20075;-67
2022/01/21 01:56:43;;;;;;;;;;;;;;;;;;2108357;28;19924;-67
2022/01/21 01:57:45;;;;;;;;;;;;;;;;;;2100302;28;20055;-67
2022/01/21 01:58:47;;;;;;;;;;;;;;;;;;2108584;28;19929;-67
2022/01/21 01:59:49;;;;;;;;;;;;;;;;;;2109375;28;19979;-67
2022/01/21 02:00:50;;;;;;;;;;;;;;;;;;2108752;28;19998;-67
2022/01/21 02:01:52;;;;;;;;;;;;;;;;;;2108747;28;19967;-67
2022/01/21 02:02:54;;;;;;;;;;;;;;;;;;2110800;28;19924;-67
2022/01/21 02:03:55;;;;;;;;;;;;;;;;;;2110870;28;19932;-67
2022/01/21 02:04:58;;;;;;;;;;;;;;;;;;2111000;28;20059;-66
2022/01/21 02:06:01;;;;;;;;;;;;;;;;;;2110803;28;19925;-65
2022/01/21 02:07:03;;;;;;;;;;;;;;;;;;2110754;28;20047;-66
2022/01/21 02:08:04;;;;;;;;;;;;;;;;;;2110743;28;19928;-65
2022/01/21 02:09:06;;;;;;;;;;;;;;;;;;2110536;28;20726;-67
2022/01/21 02:10:09;;;;;;;;;;;;;;;;;;2110067;28;20079;-67
2022/01/21 02:11:11;;;;;;;;;;;;;;;;;;2110194;28;19925;-67
2022/01/21 02:12:14;;;;;;;;;;;;;;;;;;2110817;28;19929;-66
2022/01/21 02:13:29;;;;;;;;;;;;;;;;;;2110777;28;19932;-64
2022/01/21 02:14:35;;;;;;;;;;;;;;;;;;2110457;28;19936;-65
2022/01/21 02:15:41;;;;;;;;;;;;;;;;;;2110191;28;19928;-63
2022/01/21 02:22:06;;;;;;;;;;;;;;;;;;2110663;28;20023;-67
2022/01/21 02:23:08;;;;;;;;;;;;;;;;;;2110717;28;19929;-66
2022/01/21 02:24:13;;;;;;;;;;;;;;;;;;2110130;28;19924;-67
2022/01/21 02:25:17;;;;;;;;;;;;;;;;;;2109848;28;20054;-67
2022/01/21 02:26:19;;;;;;;;;;;;;;;;;;2109899;28;19928;-66
2022/01/21 02:27:22;;;;;;;;;;;;;;;;;;2110677;28;20724;-65
2022/01/21 02:28:25;;;;;;;;;;;;;;;;;;2110599;28;20058;-67
2022/01/21 02:29:31;;;;;;;;;;;;;;;;;;2110735;28;20007;-65
2022/01/21 02:30:33;;;;;;;;;;;;;;;;;;2110146;28;19934;-63
2022/01/21 02:31:36;;;;;;;;;;;;;;;;;;2109761;28;20735;-67
2022/01/21 02:32:38;;;;;;;;;;;;;;;;;;2110014;28;19924;-64
2022/01/21 02:33:39;;;;;;;;;;;;;;;;;;2110147;28;20050;-67
2022/01/21 02:34:43;;;;;;;;;;;;;;;;;;2110768;28;19925;-67
2022/01/21 02:35:45;;;;;;;;;;;;;;;;;;2110097;28;19928;-66
2022/01/21 02:36:47;;;;;;;;;;;;;;;;;;2110159;28;20628;-64
2022/01/21 02:37:49;;;;;;;;;;;;;;;;;;2110485;28;20050;-65
2022/01/21 02:38:52;;;;;;;;;;;;;;;;;;2109994;28;20774;-67
2022/01/21 02:39:55;;;;;;;;;;;;;;;;;;2109916;28;19928;-68
2022/01/21 02:40:58;;;;;;;;;;;;;;;;;;2110493;28;19932;-67
2022/01/21 02:42:04;;;;;;;;;;;;;;;;;;2110545;28;19929;-68
2022/01/21 02:43:08;;;;;;;;;;;;;;;;;;2110420;28;19925;-65
2022/01/21 02:44:15;;;;;;;;;;;;;;;;;;2110533;28;20724;-67
2022/01/21 02:45:17;;;;;;;;;;;;;;;;;;2110307;28;19971;-64
2022/01/21 02:46:22;;;;;;;;;;;;;;;;;;2110017;28;20075;-68
2022/01/21 02:47:24;;;;;;;;;;;;;;;;;;2110641;28;20751;-64
2022/01/21 02:48:26;;;;;;;;;;;;;;;;;;2110610;28;19986;-64
2022/01/21 02:49:32;;;;;;;;;;;;;;;;;;2110420;28;19928;-69
2022/01/21 02:50:34;;;;;;;;;;;;;;;;;;2110618;28;20724;-66
2022/01/21 02:51:38;;;;;;;;;;;;;;;;;;2110056;28;19932;-63
2022/01/21 02:52:54;;;;;;;;;;;;;;;;;;2110060;28;19932;-64
2022/01/21 02:55:00;;;;;;;;;;;;;;;;;;2110067;28;19934;-66
2022/01/21 02:56:02;;;;;;;;;;;;;;;;;;2110464;28;19931;-65
2022/01/21 02:57:03;;;;;;;;;;;;;;;;;;2110246;28;20043;-64
2022/01/21 02:58:05;;;;;;;;;;;;;;;;;;2110336;28;19924;-64
2022/01/21 02:59:07;;;;;;;;;;;;;;;;;;2109932;28;19932;-65
2022/01/21 03:00:10;;;;;;;;;;;;;;;;;;2110042;28;19929;-64
2022/01/21 03:01:12;;;;;;;;;;;;;;;;;;2110225;28;20005;-65
2022/01/21 03:02:15;;;;;;;;;;;;;;;;;;2117841;28;19997;-67
2022/01/21 03:03:17;;;;;;;;;;;;;;;;;;2110424;28;20821;-68
2022/01/21 03:05:35;;;;;;;;;;;;;;;;;;2110544;28;19929;-64
2022/01/21 03:06:38;;;;;;;;;;;;;;;;;;2110161;28;19928;-67
2022/01/21 03:07:41;;;;;;;;;;;;;;;;;;2110355;28;20715;-66
2022/01/21 03:08:45;;;;;;;;;;;;;;;;;;2110434;28;19924;-64
2022/01/21 03:09:49;;;;;;;;;;;;;;;;;;2110462;28;19993;-63
2022/01/21 03:10:52;;;;;;;;;;;;;;;;;;2109808;28;19998;-66
2022/01/21 03:11:55;;;;;;;;;;;;;;;;;;2109549;28;19925;-63
2022/01/21 03:12:59;;;;;;;;;;;;;;;;;;2110444;28;19928;-66
2022/01/21 03:14:00;;;;;;;;;;;;;;;;;;2109729;28;20046;-66
2022/01/21 03:15:03;;;;;;;;;;;;;;;;;;2110292;28;20062;-65
2022/01/21 03:16:07;;;;;;;;;;;;;;;;;;2109833;28;19968;-63
2022/01/21 03:17:08;;;;;;;;;;;;;;;;;;2109701;28;19932;-63
2022/01/21 03:18:11;;;;;;;;;;;;;;;;;;2110153;28;20010;-68
2022/01/21 03:19:14;;;;;;;;;;;;;;;;;;2110421;28;19930;-64
2022/01/21 03:20:18;;;;;;;;;;;;;;;;;;2110462;28;20137;-66
2022/01/21 03:21:22;;;;;;;;;;;;;;;;;;2110446;28;20005;-66
2022/01/21 03:22:26;;;;;;;;;;;;;;;;;;2109734;28;19928;-65
2022/01/21 03:23:30;;;;;;;;;;;;;;;;;;2109568;28;20608;-64
2022/01/21 03:24:32;;;;;;;;;;;;;;;;;;2110175;28;20018;-66
2022/01/21 03:25:36;;;;;;;;;;;;;;;;;;2109745;28;19924;-65
2022/01/21 03:26:40;;;;;;;;;;;;;;;;;;2109825;28;19979;-64
2022/01/21 03:27:45;;;;;;;;;;;;;;;;;;2109574;28;19935;-66
2022/01/21 03:28:49;;;;;;;;;;;;;;;;;;2109728;28;20726;-69
2022/01/21 03:29:54;;;;;;;;;;;;;;;;;;2110504;28;19935;-68
2022/01/21 03:30:59;;;;;;;;;;;;;;;;;;2109717;28;19928;-67
2022/01/21 03:32:06;;;;;;;;;;;;;;;;;;2109686;28;19979;-67
2022/01/21 03:33:13;;;;;;;;;;;;;;;;;;2109681;28;19928;-68
2022/01/21 03:34:15;;;;;;;;;;;;;;;;;;2110214;28;20628;-67
2022/01/21 03:35:21;;;;;;;;;;;;;;;;;;2110033;28;19929;-64
2022/01/21 03:36:32;;;;;;;;;;;;;;;;;;2110177;28;19931;-67
2022/01/21 03:37:33;;;;;;;;;;;;;;;;;;2110327;28;20597;-69
2022/01/21 03:38:41;;;;;;;;;;;;;;;;;;2109573;28;19928;-66
2022/01/21 03:39:47;;;;;;;;;;;;;;;;;;2109656;28;19924;-65
2022/01/21 03:40:53;;;;;;;;;;;;;;;;;;2109359;28;20010;-70
2022/01/21 03:41:58;;;;;;;;;;;;;;;;;;2109609;28;19937;-68
2022/01/21 03:43:01;;;;;;;;;;;;;;;;;;2109558;28;20585;-65
2022/01/21 03:44:07;;;;;;;;;;;;;;;;;;2109593;28;20706;-67
2022/01/21 03:45:12;;;;;;;;;;;;;;;;;;2110520;28;20002;-67
2022/01/21 03:46:15;;;;;;;;;;;;;;;;;;2116866;28;19928;-64
2022/01/21 03:47:18;;;;;;;;;;;;;;;;;;2110164;28;20708;-70
2022/01/21 03:48:21;;;;;;;;;;;;;;;;;;2110070;28;19925;-66
2022/01/21 03:49:28;;;;;;;;;;;;;;;;;;2110062;28;20744;-68
2022/01/21 03:50:32;;;;;;;;;;;;;;;;;;2110219;28;20058;-64
2022/01/21 03:51:37;;;;;;;;;;;;;;;;;;2109502;28;19928;-67
2022/01/21 03:52:40;;;;;;;;;;;;;;;;;;2109295;28;19966;-66
2022/01/21 03:53:46;;;;;;;;;;;;;;;;;;2109619;28;20817;-69
2022/01/21 03:54:48;;;;;;;;;;;;;;;;;;2109873;28;20068;-68
2022/01/21 03:55:52;;;;;;;;;;;;;;;;;;2109498;28;20065;-65
2022/01/21 03:56:55;;;;;;;;;;;;;;;;;;2109267;28;19928;-66
2022/01/21 03:57:58;;;;;;;;;;;;;;;;;;2109682;28;19928;-67
2022/01/21 03:59:01;;;;;;;;;;;;;;;;;;2109714;28;19928;-65
2022/01/21 04:00:03;;;;;;;;;;;;;;;;;;2109509;28;20756;-65
2022/01/21 04:01:07;;;;;;;;;;;;;;;;;;2110051;28;19986;-66
2022/01/21 04:02:10;;;;;;;;;;;;;;;;;;2109521;28;20615;-65
2022/01/21 04:03:13;;;;;;;;;;;;;;;;;;2109590;28;19998;-66
2022/01/21 04:04:16;;;;;;;;;;;;;;;;;;2109862;28;19929;-65
2022/01/21 04:05:19;;;;;;;;;;;;;;;;;;2110179;28;19924;-67
2022/01/21 04:06:22;;;;;;;;;;;;;;;;;;2109430;28;19929;-67
2022/01/21 04:07:24;;;;;;;;;;;;;;;;;;2109446;28;20710;-65
2022/01/21 04:08:27;;;;;;;;;;;;;;;;;;2109378;28;19935;-66
2022/01/21 04:09:30;;;;;;;;;;;;;;;;;;2109293;28;19929;-67
2022/01/21 04:10:35;;;;;;;;;;;;;;;;;;2109537;28;19932;-65
2022/01/21 04:11:38;;;;;;;;;;;;;;;;;;2110027;28;19925;-69
2022/01/21 04:12:41;;;;;;;;;;;;;;;;;;2109986;28;19928;-68
2022/01/21 04:13:45;;;;;;;;;;;;;;;;;;2109374;28;20051;-64
2022/01/21 04:14:46;;;;;;;;;;;;;;;;;;2109484;28;19936;-69
2022/01/21 04:15:50;;;;;;;;;;;;;;;;;;2109994;28;19929;-65
2022/01/21 04:16:53;;;;;;;;;;;;;;;;;;2110134;28;20051;-68
2022/01/21 04:17:54;;;;;;;;;;;;;;;;;;2109519;28;19932;-65
2022/01/21 04:18:57;;;;;;;;;;;;;;;;;;2109301;28;19925;-67
2022/01/21 04:20:00;;;;;;;;;;;;;;;;;;2109868;28;19931;-66
2022/01/21 04:21:03;;;;;;;;;;;;;;;;;;2109554;28;19925;-64
2022/01/21 04:22:06;;;;;;;;;;;;;;;;;;2109824;28;19932;-65
2022/01/21 04:23:10;;;;;;;;;;;;;;;;;;2110013;28;20731;-65
2022/01/21 04:24:14;;;;;;;;;;;;;;;;;;2109899;28;19935;-64
2022/01/21 04:25:17;;;;;;;;;;;;;;;;;;2108341;28;20742;-66
2022/01/21 04:26:19;;;;;;;;;;;;;;;;;;2107363;28;19929;-67
2022/01/21 04:27:21;;;;;;;;;;;;;;;;;;2108893;28;19924;-65
2022/01/21 04:28:24;;;;;;;;;;;;;;;;;;2109240;28;19928;-67
2022/01/21 04:29:26;;;;;;;;;;;;;;;;;;2109859;28;20034;-66
2022/01/21 04:30:29;;;;;;;;;;;;;;;;;;2109921;28;19928;-67
2022/01/21 04:31:33;;;;;;;;;;;;;;;;;;2109301;28;19924;-64
2022/01/21 04:32:35;;;;;;;;;;;;;;;;;;2109238;28;19928;-65
2022/01/21 04:33:40;;;;;;;;;;;;;;;;;;2109901;28;20593;-65
2022/01/21 04:34:43;;;;;;;;;;;;;;;;;;2109352;28;20870;-65
2022/01/21 04:35:46;;;;;;;;;;;;;;;;;;2109243;28;19924;-64
2022/01/21 04:36:49;;;;;;;;;;;;;;;;;;2109297;28;19928;-65
2022/01/21 04:38:00;;;;;;;;;;;;;;;;;;2108127;28;19931;-65
2022/01/21 04:39:14;;;;;;;;;;;;;;;;;;2108149;28;19931;-65
2022/01/21 04:40:19;;;;;;;;;;;;;;;;;;2108226;28;19932;-65
2022/01/21 04:41:41;;;;;;;;;;;;;;;;;;2108752;28;19955;-65
2022/01/21 04:47:56;;;;;;;;;;;;;;;;;;2108735;28;19928;-67
2022/01/21 04:48:58;;;;;;;;;;;;;;;;;;2108477;28;20873;-68
2022/01/21 04:50:00;;;;;;;;;;;;;;;;;;2108840;28;19928;-68
2022/01/21 04:52:33;;;;;;;;;;;;;;;;;;2104309;28;19928;-64
2022/01/21 04:53:35;;;;;;;;;;;;;;;;;;2109704;28;19924;-65
2022/01/21 04:54:37;;;;;;;;;;;;;;;;;;2108478;28;19928;-67
2022/01/21 04:55:39;;;;;;;;;;;;;;;;;;2108732;28;20715;-66
2022/01/21 04:56:42;;;;;;;;;;;;;;;;;;2109370;28;19931;-66
2022/01/21 04:57:46;;;;;;;;;;;;;;;;;;2109711;28;19925;-66
2022/01/21 04:58:57;;;;;;;;;;;;;;;;;;2109142;28;19960;-66
2022/01/21 05:00:09;;;;;;;;;;;;;;;;;;2109129;28;19925;-65
2022/01/21 05:01:12;;;;;;;;;;;;;;;;;;2108996;28;20616;-66
2022/01/21 05:02:16;;;;;;;;;;;;;;;;;;2109025;28;19924;-64
2022/01/21 05:03:18;;;;;;;;;;;;;;;;;;2108260;28;19928;-64
2022/01/21 05:04:21;;;;;;;;;;;;;;;;;;2109406;28;20632;-69
2022/01/21 05:05:22;;;;;;;;;;;;;;;;;;2117235;28;19924;-66
2022/01/21 05:06:24;;;;;;;;;;;;;;;;;;2108550;28;19928;-66
2022/01/21 05:07:29;;;;;;;;;;;;;;;;;;2107880;28;19962;-66
2022/01/21 05:08:54;;;;;;;;;;;;;;;;;;2107970;28;19998;-66
2022/01/21 05:09:53;;;;;;;;;;;;;;;;;;2108298;28;19924;-64
2022/01/21 05:10:55;;;;;;;;;;;;;;;;;;2108605;28;21189;-68
2022/01/21 05:11:57;;;;;;;;;;;;;;;;;;2108632;28;19998;-69
2022/01/21 05:12:59;;;;;;;;;;;;;;;;;;2107757;28;20830;-69
2022/01/21 05:14:15;;;;;;;;;;;;;;;;;;2108018;28;19932;-68
2022/01/21 05:15:27;;;;;;;;;;;;;;;;;;2108228;28;20046;-69
2022/01/21 05:16:36;;;;;;;;;;;;;;;;;;2108065;28;19924;-66
2022/01/21 05:17:45;;;;;;;;;;;;;;;;;;2109323;28;19928;-68
2022/01/21 05:18:48;;;;;;;;;;;;;;;;;;2107838;28;19959;-70
2022/01/21 05:19:50;;;;;;;;;;;;;;;;;;2108130;28;20053;-69
2022/01/21 05:20:52;;;;;;;;;;;;;;;;;;2108058;28;19924;-70
2022/01/21 05:21:54;;;;;;;;;;;;;;;;;;2109138;28;19924;-69
2022/01/21 05:22:57;;;;;;;;;;;;;;;;;;2109420;28;20775;-69
2022/01/21 05:23:59;;;;;;;;;;;;;;;;;;2109500;28;20827;-68
2022/01/21 05:25:01;;;;;;;;;;;;;;;;;;2109402;28;19928;-69
2022/01/21 05:26:04;;;;;;;;;;;;;;;;;;2109670;28;20755;-70
2022/01/21 05:27:07;;;;;;;;;;;;;;;;;;2109532;28;19936;-69
2022/01/21 05:28:09;;;;;;;;;;;;;;;;;;2109448;28;20005;-68
2022/01/21 05:29:11;;;;;;;;;;;;;;;;;;2108815;28;20634;-70
2022/01/21 05:30:14;;;;;;;;;;;;;;;;;;2108694;28;19928;-70
2022/01/21 05:31:17;;;;;;;;;;;;;;;;;;2109926;28;20055;-68
2022/01/21 05:32:19;;;;;;;;;;;;;;;;;;2109157;28;19928;-69
2022/01/21 05:33:21;;;;;;;;;;;;;;;;;;2108940;28;20082;-69
2022/01/21 05:34:24;;;;;;;;;;;;;;;;;;2108781;28;20786;-70
2022/01/21 05:35:25;;;;;;;;;;;;;;;;;;2109004;28;19931;-69
2022/01/21 05:36:28;;;;;;;;;;;;;;;;;;2108761;28;20848;-69
2022/01/21 05:37:30;;;;;;;;;;;;;;;;;;2109035;28;20718;-69
2022/01/21 05:38:31;;;;;;;;;;;;;;;;;;2108758;28;20751;-69
2022/01/21 05:39:33;;;;;;;;;;;;;;;;;;2108832;28;19929;-70
2022/01/21 05:40:37;;;;;;;;;;;;;;;;;;2108754;28;19929;-68
2022/01/21 05:41:39;;;;;;;;;;;;;;;;;;2109005;28;19928;-68
2022/01/21 05:42:41;;;;;;;;;;;;;;;;;;2108802;28;19924;-69
2022/01/21 05:43:46;;;;;;;;;;;;;;;;;;2108877;28;19929;-68
2022/01/21 05:47:11;;;;;;;;;;;;;;;;;;2109093;28;19928;-68
2022/01/21 05:48:14;;;;;;;;;;;;;;;;;;2109449;28;20021;-69
2022/01/21 05:49:17;;;;;;;;;;;;;;;;;;2109352;28;20144;-68
2022/01/21 05:50:19;;;;;;;;;;;;;;;;;;2108872;28;20679;-68
2022/01/21 05:51:23;;;;;;;;;;;;;;;;;;2108800;28;19924;-66
2022/01/21 05:52:35;;;;;;;;;;;;;;;;;;2108834;28;19925;-67
2022/01/21 05:53:37;;;;;;;;;;;;;;;;;;2108759;28;19928;-69
2022/01/21 05:54:39;;;;;;;;;;;;;;;;;;2108780;28;19979;-67
2022/01/21 05:55:42;;;;;;;;;;;;;;;;;;2108947;28;20703;-69
2022/01/21 05:56:45;;;;;;;;;;;;;;;;;;2108567;28;20051;-68
2022/01/21 05:57:47;;;;;;;;;;;;;;;;;;2108592;28;20808;-68
2022/01/21 05:58:48;;;;;;;;;;;;;;;;;;2108999;28;20863;-68
2022/01/21 05:59:50;;;;;;;;;;;;;;;;;;2108560;28;19928;-69
2022/01/21 06:00:52;;;;;;;;;;;;;;;;;;2108757;28;19935;-67
2022/01/21 06:01:54;;;;;;;;;;;;;;;;;;2108841;28;19998;-70
2022/01/21 06:02:56;;;;;;;;;;;;;;;;;;2116436;28;19924;-68
2022/01/21 06:03:59;;;;;;;;;;;;;;;;;;2109158;28;19936;-68
2022/01/21 06:05:01;;;;;;;;;;;;;;;;;;2109062;28;19936;-69
2022/01/21 06:06:03;;;;;;;;;;;;;;;;;;2109135;28;19928;-68
2022/01/21 06:07:06;;;;;;;;;;;;;;;;;;2108131;28;19935;-69
2022/01/21 06:08:08;;;;;;;;;;;;;;;;;;2109022;28;20716;-69
2022/01/21 06:09:10;;;;;;;;;;;;;;;;;;2109235;28;20050;-67
2022/01/21 06:10:12;;;;;;;;;;;;;;;;;;2108963;28;19928;-70
2022/01/21 06:11:14;;;;;;;;;;;;;;;;;;2109262;28;19972;-65
2022/01/21 06:12:16;;;;;;;;;;;;;;;;;;2109045;28;19924;-64
2022/01/21 06:13:19;;;;;;;;;;;;;;;;;;2106905;28;19954;-64
2022/01/21 06:14:21;;;;;;;;;;;;;;;;;;2108979;28;19928;-63
2022/01/21 06:15:24;;;;;;;;;;;;;;;;;;2112455;27;19932;-64
2022/01/21 06:16:26;;;;;;;;;;;;;;;;;;2112279;28;19928;-65
2022/01/21 06:17:28;;;;;;;;;;;;;;;;;;2111398;28;20011;-65
2022/01/21 06:18:29;;;;;;;;;;;;;;;;;;2111177;28;19935;-64
2022/01/21 06:19:31;;;;;;;;;;;;;;;;;;2107066;28;19975;-64
2022/01/21 06:20:34;;;;;;;;;;;;;;;;;;2105356;28;19928;-63
2022/01/21 06:21:37;;;;;;;;;;;;;;;;;;2115605;28;19928;-64
2022/01/21 06:22:58;;;;;;;;;;;;;;;;;;2110819;28;20035;-64
2022/01/21 06:24:19;;;;;;;;;;;;;;;;;;2106794;28;19935;-63
2022/01/21 06:25:40;;;;;;;;;;;;;;;;;;2105686;28;19935;-63
2022/01/21 06:27:04;;;;;;;;;;;;;;;;;;2110587;28;19928;-62
2022/01/21 06:28:25;;;;;;;;;;;;;;;;;;2110454;28;20727;-62
2022/01/21 06:29:46;;;;;;;;;;;;;;;;;;2112232;28;19924;-63
2022/01/21 06:31:03;;;;;;;;;;;;;;;;;;2112532;28;20745;-63
2022/01/21 06:32:10;;;;;;;;;;;;;;;;;;2110722;28;19936;-63
2022/01/21 06:33:22;;;;;;;;;;;;;;;;;;2108619;28;19936;-64
2022/01/21 06:34:31;;;;;;;;;;;;;;;;;;2116303;28;20054;-63
2022/01/21 06:35:43;;;;;;;;;;;;;;;;;;2107926;28;19929;-62
2022/01/21 06:36:44;;;;;;;;;;;;;;;;;;2107304;28;20005;-62
2022/01/21 06:37:52;;;;;;;;;;;;;;;;;;2112810;28;19998;-64
2022/01/21 06:38:53;;;;;;;;;;;;;;;;;;2115159;28;19982;-64
2022/01/21 06:40:00;;;;;;;;;;;;;;;;;;2107402;28;20732;-64
2022/01/21 06:41:06;;;;;;;;;;;;;;;;;;2113219;28;19936;-65
2022/01/21 06:42:13;;;;;;;;;;;;;;;;;;2109943;28;19980;-65
2022/01/21 06:43:19;;;;;;;;;;;;;;;;;;2110530;28;20633;-64
2022/01/21 06:44:23;;;;;;;;;;;;;;;;;;2110180;28;20729;-63
2022/01/21 06:45:28;;;;;;;;;;;;;;;;;;2107125;28;20033;-64
2022/01/21 06:46:33;;;;;;;;;;;;;;;;;;2108757;28;20106;-64
2022/01/21 06:47:36;;;;;;;;;;;;;;;;;;2111486;28;19929;-63
2022/01/21 06:48:43;;;;;;;;;;;;;;;;;;2110733;28;20043;-64
2022/01/21 06:49:50;;;;;;;;;;;;;;;;;;2109676;28;19928;-64
2022/01/21 06:50:55;;;;;;;;;;;;;;;;;;2113864;28;20001;-67
2022/01/21 06:52:00;;;;;;;;;;;;;;;;;;2115245;28;19932;-68
2022/01/21 06:53:06;;;;;;;;;;;;;;;;;;2116616;28;19928;-65
2022/01/21 06:54:13;;;;;;;;;;;;;;;;;;2109116;28;20730;-65
2022/01/21 06:55:18;;;;;;;;;;;;;;;;;;2107706;28;20050;-64
2022/01/21 06:56:23;;;;;;;;;;;;;;;;;;2108452;28;19931;-64
2022/01/21 06:57:30;;;;;;;;;;;;;;;;;;2110119;28;19928;-65
2022/01/21 06:58:35;;;;;;;;;;;;;;;;;;2110107;28;19998;-64
2022/01/21 06:59:41;;;;;;;;;;;;;;;;;;2115823;28;19925;-66
2022/01/21 07:00:46;;;;;;;;;;;;;;;;;;2110706;28;19929;-67
2022/01/21 07:01:50;;;;;;;;;;;;;;;;;;2109778;28;19924;-70
2022/01/21 07:02:56;;;;;;;;;;;;;;;;;;2106413;28;19925;-69
2022/01/21 07:04:01;;;;;;;;;;;;;;;;;;2110939;28;20738;-71
2022/01/21 07:05:06;;;;;;;;;;;;;;;;;;2117557;28;19931;-69
2022/01/21 07:06:08;;;;;;;;;;;;;;;;;;2118020;28;20036;-68
2022/01/21 07:07:15;;;;;;;;;;;;;;;;;;2111772;28;19939;-68
2022/01/21 07:08:22;;;;;;;;;;;;;;;;;;2110869;28;20114;-71
2022/01/21 07:09:26;;;;;;;;;;;;;;;;;;2108372;28;19928;-70
2022/01/21 07:10:30;;;;;;;;;;;;;;;;;;2108003;28;19989;-73
2022/01/21 07:11:35;;;;;;;;;;;;;;;;;;2108755;28;20006;-74
2022/01/21 07:12:41;;;;;;;;;;;;;;;;;;2109923;28;19928;-66
2022/01/21 07:13:45;;;;;;;;;;;;;;;;;;2108379;28;19935;-67
2022/01/21 07:14:50;;;;;;;;;;;;;;;;;;2108825;28;20633;-68
2022/01/21 07:15:55;;;;;;;;;;;;;;;;;;2108201;28;20761;-67
2022/01/21 07:16:57;;;;;;;;;;;;;;;;;;2109209;28;19939;-67
2022/01/21 07:18:01;;;;;;;;;;;;;;;;;;2109956;28;19928;-70
2022/01/21 07:19:03;;;;;;;;;;;;;;;;;;2117010;28;19928;-69
2022/01/21 07:20:07;;;;;;;;;;;;;;;;;;2108266;28;19931;-68
2022/01/21 07:21:10;;;;;;;;;;;;;;;;;;2108287;28;20006;-62
2022/01/21 07:22:14;;;;;;;;;;;;;;;;;;2116648;28;19967;-64
2022/01/21 07:23:17;;;;;;;;;;;;;;;;;;2110834;28;19924;-65
2022/01/21 07:24:21;;;;;;;;;;;;;;;;;;2109501;28;19928;-68
2022/01/21 07:25:27;;;;;;;;;;;;;;;;;;2107039;28;19932;-69
2022/01/21 07:26:32;;;;;;;;;;;;;;;;;;2109951;28;19929;-69
2022/01/21 07:27:37;;;;;;;;;;;;;;;;;;2107865;28;19928;-69
2022/01/21 07:28:43;;;;;;;;;;;;;;;;;;2115817;28;20747;-72
2022/01/21 07:29:48;;;;;;;;;;;;;;;;;;2117549;28;20042;-70
2022/01/21 07:30:55;;;;;;;;;;;;;;;;;;2113838;28;20892;-70
2022/01/21 07:32:00;;;;;;;;;;;;;;;;;;2116901;28;19928;-70
2022/01/21 07:33:08;;;;;;;;;;;;;;;;;;2110231;28;20862;-70
2022/01/21 07:34:15;;;;;;;;;;;;;;;;;;2114713;28;19932;-69
2022/01/21 07:35:22;;;;;;;;;;;;;;;;;;2114613;28;19993;-69
2022/01/21 07:36:26;;;;;;;;;;;;;;;;;;2110355;28;20006;-70
2022/01/21 07:37:31;;;;;;;;;;;;;;;;;;2110702;28;19963;-67
2022/01/21 07:38:38;;;;;;;;;;;;;;;;;;2116076;28;20051;-67
2022/01/21 07:39:41;;;;;;;;;;;;;;;;;;2114347;28;20047;-68
2022/01/21 07:40:46;;;;;;;;;;;;;;;;;;2108299;28;20644;-66
2022/01/21 07:41:50;;;;;;;;;;;;;;;;;;2108976;28;19924;-68
2022/01/21 07:42:56;;;;;;;;;;;;;;;;;;2112217;28;20062;-68
2022/01/21 07:44:05;;;;;;;;;;;;;;;;;;2109010;28;19933;-68
2022/01/21 07:45:15;;;;;;;;;;;;;;;;;;2108623;28;19979;-74
2022/01/21 07:46:37;;;;;;;;;;;;;;;;;;2108542;28;19991;-74
2022/01/21 07:47:58;;;;;;;;;;;;;;;;;;2110096;28;19929;-73
2022/01/21 07:49:19;;;;;;;;;;;;;;;;;;2117036;28;19959;-73
2022/01/21 07:50:41;;;;;;;;;;;;;;;;;;2113033;28;19932;-73
2022/01/21 07:52:03;;;;;;;;;;;;;;;;;;2109506;28;20872;-73
2022/01/21 07:53:25;;;;;;;;;;;;;;;;;;2107457;28;20803;-73
2022/01/21 07:54:46;;;;;;;;;;;;;;;;;;2106807;28;19929;-73
2022/01/21 07:56:08;;;;;;;;;;;;;;;;;;2114477;28;19924;-73
2022/01/21 07:57:31;;;;;;;;;;;;;;;;;;2116480;28;19928;-74
2022/01/21 07:58:52;;;;;;;;;;;;;;;;;;2110965;28;20768;-74
2022/01/21 07:59:59;;;;;;;;;;;;;;;;;;2112362;28;20731;-74
2022/01/21 08:01:20;;;;;;;;;;;;;;;;;;2115889;28;19928;-73
2022/01/21 08:02:42;;;;;;;;;;;;;;;;;;2112401;28;20777;-73
2022/01/21 08:04:04;;;;;;;;;;;;;;;;;;2109445;28;20826;-73
2022/01/21 08:05:30;;;;;;;;;;;;;;;;;;2104351;28;19928;-72
2022/01/21 08:06:52;;;;;;;;;;;;;;;;;;2112435;27;19935;-73
2022/01/21 08:07:53;;;;;;;;;;;;;;;;;;2110777;28;19928;-72
2022/01/21 08:09:15;;;;;;;;;;;;;;;;;;2107938;28;19935;-73
2022/01/21 08:10:17;;;;;;;;;;;;;;;;;;2113915;28;19928;-73
2022/01/21 08:11:39;;;;;;;;;;;;;;;;;;2107368;28;20624;-73